Airfield :
LOGIN :

Register | Disclaimer

   EN    FR    IT 

 










Legend :    VFR   Marginal VFR   IFR   Intensive IFR   Very Intensive IFR
Visi :
Ceiling :
>= 8 km
>= 3000ft
5 to 8 km
1000 to 3000 ft
1500m to 5 km
500 to 1000 ft
800 to 1500m
200 to 500 ft
< 800m
< 200 ft
Symbols :   Thunderstorms  Fog  Heavy snow  Heavy precipitations  Wind > 20 kt
SIGMETs :     Misc.  Thunderstorms  Icing  Turbulence  Mountain Waves  Volcanic Ashes






- Airport Elevation : 362 ft
- IATA code : WAW


EPWA - Warsaw Okecie

CURRENT METAR :
  • 251800Z 28003KT 9999 FEW053CB 12/11 Q1024 TEMPO SHRA

EXPIRED METARs :
  • 251730Z 27004KT 9999 FEW046CB 12/11 Q1024 TEMPO SHRA
  • 251700Z 25003KT 9999 FEW044CB 13/12 Q1024 NOSIG
  • 251630Z VRB02KT 9999 FEW044CB 13/12 Q1024 NOSIG
  • 251600Z 18003KT 9999 SCT044CB 13/11 Q1024 NOSIG
  • 251530Z 10003KT 060V140 9999 -SHRA FEW024 SCT043CB 13/10 Q1024 RESHRAGR TEMPO SHRA

TAF TAF EPWA
Valid from the 25 at 18:00 until the 26 at 18:00 UTC


251730Z 2518/2618 VRB04KT 9999 SCT045
TEMPO 2518/2521 -SHRA BKN030CB
PROB40 2600/2605 3000 BR
BECMG 2606/2609 36010KT
TEMPO 2611/2615 SHRA BKN030CB



MET'MAP, your aeronautical weather chart ! - Copyright ORBIFLY December 2007 - Disclaimer

ORBIFLY MET'MAP TEAM :

Programming & Development : Alexandra Zaïnal
Concept & original design : Baudouin d'Aumeries
Assistance for programming : Marc-Olivier Méhu
Technical & hardware support : Manuel Goepfert

Contact : metmap@orbifly.com




SOURCES & CREDITS :

   NOAA